Tuesday, January 23, 2018, 6:58 PM EST
Back to Local

KBUF, Greater Buffalo International Airport

Location: Buffalo, NY, United States Lat: 42.933
Local Time: 6:58 PM EST (23:58 GMT) Lon: -78.733
Time Zone: US/Eastern Elev: 725 ft

Show me the last for .
Show Decoded

2018-01-23 17:54 METAR KBUF 232254Z 24027G46KT 10SM SCT009 BKN013 OVC033 02/00 A2959 RMK AO2 PK
                 WND 24046/2248 RAE46 SLP027 P0000 T00220000 =
2018-01-23 17:22 METAR KBUF 232222Z 24025G36KT 10SM -RA OVC009 02/01 A2959 RMK AO2 PK WND
                 25036/2215 P0000 T00170006 =
2018-01-23 16:54 METAR KBUF 232154Z 24027G35KT 9SM -RA OVC010 02/01 A2959 RMK AO2 PK WND
                 25036/2102 RAB45 SLP024 P0000 T00220006 =
2018-01-23 15:54 METAR KBUF 232054Z 24018G29KT 10SM BKN011 BKN024 BKN060 03/01 A2958 RMK AO2 PK
                 WND 24034/2040 SLP020 60000 T00280006 53008 =
2018-01-23 15:34 METAR KBUF 232034Z 24019G27KT 10SM BKN011 BKN024 BKN060 03/01 A2957 RMK AO2 PK
                 WND 24032/1955 T00280006 =
2018-01-23 14:54 METAR KBUF 231954Z 25022G32KT 10SM BKN009 BKN014 BKN020 03/01 A2955 RMK AO2 PK
                 WND 25034/1920 RAE07 SLP012 P0000 T00280011 =
2018-01-23 14:51 METAR KBUF 231951Z 25022G31KT 10SM BKN009 BKN014 BKN020 03/01 A2956 RMK AO2 PK
                 WND 25034/1920 RAE07 P0000 =
2018-01-23 14:36 METAR KBUF 231936Z 24020G31KT 10SM FEW009 SCT014 OVC020 03/01 A2955 RMK AO2 PK
                 WND 25034/1920 RAE07 OCNL BINOVC P0000 T00280011 =
2018-01-23 13:54 METAR KBUF 231854Z COR 24017G30KT 10SM -RA BKN009 OVC014 02/01 A2955 RMK AO2 PK
                 WND 24030/1845 SLP011 RAB28 CIG 007V011 PCPN VRY LGT P0000 T00220011 =
2018-01-23 12:54 METAR KBUF 231754Z 23019G25KT 10SM BKN008 OVC035 02/01 A2955 RMK AO2 PK WND
                 23027/1733 SLP011 RAE23 P0001 60001 T00220011 10094 20022 53015 =
2018-01-23 12:24 METAR KBUF 231724Z 23019G24KT 10SM BKN009 BKN022 OVC035 02/01 A2955 =
2018-01-23 11:54 METAR KBUF 231654Z 24018G24KT 10SM -RA FEW011 BKN024 OVC045 03/02 A2954 RMK AO2
                 PK WND 24029/1637 RAB04 SLP007 VIS LWR SE P0000 T00330017 =
2018-01-23 11:52 METAR KBUF 231652Z 24016G24KT 10SM -RA FEW011 BKN024 OVC045 03/02 A2953 RMK AO2
                 PK WND 24029/1637 RAB04 VIS LWR SE P0000 =
2018-01-23 10:54 METAR KBUF 231554Z 22017G25KT 10SM FEW027 BKN065 BKN085 BKN220 09/03 A2950 RMK
                 AO2 SLP991 SHRA DSNT NE-E SW-NW MDT CU DSNT SE T00890033 =
2018-01-23 09:54 METAR KBUF 231454Z 19016KT 10SM FEW027 BKN065 BKN085 BKN180 BKN250 08/03 A2951
                 RMK AO2 RAE17 SLP993 SHRA VC NE-SE-SW P0000 60000 T00830033 58004 =
2018-01-23 08:54 METAR KBUF 231354Z 21008KT 10SM -RA FEW030 BKN070 BKN090 BKN180 BKN250 08/06
                 A2951 RMK AO2 RAB50 SLP996 PCPN VRY LGT P0000 T00780061 =
2018-01-23 07:54 METAR KBUF 231254Z 21007KT 10SM FEW055 BKN085 OVC180 07/06 A2953 RMK AO2 SLP002
                 T00670056 =
2018-01-23 06:54 METAR KBUF 231154Z COR 20007KT 10SM FEW055 SCT120 BKN180 06/06 A2952 RMK AO2
                 RAE04 PRESFR SLP999 P0000 60020 70042 T00610056 10117 20050 58014 $ =
2018-01-23 06:01 METAR KBUF 231101Z 19006KT 10SM -RA BKN055 BKN070 BKN120 06/06 A2954 RMK AO2
                 P0000 T00610061 $ =
2018-01-23 05:54 METAR KBUF 231054Z 15006KT 10SM -RA BKN003 OVC025 07/06 A2953 RMK AO2 TSE0958
                 PRESFR SLP005 TS DSIPTD P0007 T00670061 $ =
2018-01-23 04:58 METAR KBUF 230958Z 21008KT 6SM RA BR BKN003 OVC025 05/05 A2958 =
2018-01-23 04:54 METAR KBUF 230954Z 22009KT 7SM -TSRA FEW021 OVC046CB 05/05 A2958 RMK AO2 RAB0857
                 TSB14 SLP022 OCNL LTGIC OHD AND DSNT S TS OHD MOV NE CB DSNT S P0013 T00500050 $
                 =
2018-01-23 04:14 METAR KBUF 230914Z 23014G21KT 6SM +TSRA BR FEW021 OVC046CB 06/06 A2957 RMK AO2
                 LTG DSNT SE AND S RAB0857 TSB14 OCNL LTGIC OHD AND DSNT S TS OHD MOV NE CB DSNT
                 S P0004 T00610056 $ =
2018-01-23 03:54 METAR KBUF 230854Z 24017G29KT 10SM FEW021 BKN035 OVC042 08/06 A2956 RMK AO2 PK
                 WND 22040/0838 WSHFT 0827 LTG DSNT N AND S SLP013 P0000 60000 T00780061 55007 $
                 =
2018-01-23 03:47 METAR KBUF 230847Z 24021G40KT 7SM -RA FEW019 BKN033 OVC050 09/07 A2956 RMK AO2
                 PK WND 22040/0838 WSHFT 0827 LTG DSNT N AND S P0000 T00890067 $ =
2018-01-23 02:54 METAR KBUF 230754Z 16018G23KT 10SM FEW050 BKN095 BKN250 11/06 A2951 RMK AO2 LTG
                 DSNT SW AND W SLP993 OCNL LTGIC DSNT SW-W CB DSNT SW-W MOV NE T01110061 $ =
2018-01-23 01:54 METAR KBUF 230654Z 16015KT 10SM FEW050 BKN095 BKN250 11/06 A2955 RMK AO2 SLP010
                 T01060061 $ =
2018-01-23 00:54 METAR KBUF 230554Z 16010KT 10SM FEW047 SCT060 OVC095 10/07 A2958 RMK AO2
                 RAE06B22E35 SLP020 P0001 60011 T01000067 10111 20089 58043 $ =
2018-01-22 23:54 METAR KBUF 230454Z 16011KT 10SM -RA BKN049 BKN060 OVC070 10/07 A2964 RMK AO2
                 SLP039 P0004 T01000072 401110028 $ =
2018-01-22 22:54 METAR KBUF 230354Z 14007KT 10SM -RA OVC065 09/07 A2968 RMK AO2 SLP054 P0004
                 T00940072 $ =
2018-01-22 21:54 METAR KBUF 230254Z 17007KT 10SM -RA OVC065 10/08 A2971 RMK AO2 RAB0158 SLP065
                 P0002 60002 T01000078 56024 $ =
2018-01-22 20:54 METAR KBUF 230154Z 16011KT 10SM BKN065 BKN100 OVC180 11/08 A2974 RMK AO2 SLP074
                 T01060078 $ =
2018-01-22 19:54 METAR KBUF 230054Z 14008KT 10SM BKN075 BKN090 OVC180 09/08 A2975 RMK AO2 SLP080
                 T00940078 $ =

Support USWX by starting your Amazon purchase here.